^^
Saratoga-Weather Station Historical Data
 
Daily Summary for August 20, 2018 Units:  English    Metric   Both
Daily Weekly Monthly Yearly Custom
  Current: High: Low: Average:
Temperature: 72.1 °F 72.1 °F 55.4 °F 59.1 °F
Dew Point: 56.5 °F 56.6 °F 51.3 °F 53.9 °F
Humidity: 58% 90% 57% 84%
Wind Speed: 1.3mph 2.9mph 0mph 0.1mph
Wind Gust: 3.5mph 6.9mph - -
WindSouth - - SW
Pressure: 29.89 in 29.93 in 29.86 in -
Precipitation: 0 in      
Historical Graphs
 
 
Tabular Data for August 20, 2018
Time Temperature Dew Point Pressure Wind Wind Speed Wind Gust Humidity Rainfall Rate (Hourly) solar
00:04 60.2 °F 55 °F 29.88 in Calm     83% 0 in 0.00 W/m2
00:09 59.9 °F 55.1 °F 29.88 in Calm     84% 0 in 0.00 W/m2
00:14 59.8 °F 55 °F 29.88 in Calm     84% 0 in 0.00 W/m2
00:19 59.8 °F 55 °F 29.88 in Calm     84% 0 in 0.00 W/m2
00:24 59.5 °F 54.7 °F 29.88 in Calm     84% 0 in 0.00 W/m2
00:29 59.5 °F 54.7 °F 29.88 in Calm     84% 0 in 0.00 W/m2
00:34 59.3 °F 54.5 °F 29.88 in Calm     84% 0 in 0.00 W/m2
00:39 59.2 °F 54.4 °F 29.88 in Calm     84% 0 in 0.00 W/m2
00:44 59 °F 54.5 °F 29.88 in Calm     85% 0 in 0.00 W/m2
00:49 58.9 °F 54.1 °F 29.88 in Calm     84% 0 in 0.00 W/m2
00:54 58.9 °F 54.4 °F 29.88 in Calm     85% 0 in 0.00 W/m2
00:59 58.7 °F 54.2 °F 29.87 in Calm     85% 0 in 0.00 W/m2
01:04 58.6 °F 54.1 °F 29.87 in Calm     85% 0 in 0.00 W/m2
01:09 58.4 °F 53.9 °F 29.87 in Calm     85% 0 in 0.00 W/m2
01:14 58.3 °F 53.8 °F 29.87 in Calm     85% 0 in 0.00 W/m2
01:19 58.1 °F 53.6 °F 29.87 in Calm     85% 0 in 0.00 W/m2
01:24 58.1 °F 53.6 °F 29.86 in Calm     85% 0 in 0.00 W/m2
01:29 58 °F 53.5 °F 29.86 in Calm     85% 0 in 0.00 W/m2
01:34 57.8 °F 53.3 °F 29.86 in Calm     85% 0 in 0.00 W/m2
01:39 57.6 °F 53.1 °F 29.86 in Calm     85% 0 in 0.00 W/m2
01:44 57.5 °F 53.3 °F 29.86 in Calm     86% 0 in 0.00 W/m2
01:49 57.3 °F 53.1 °F 29.87 in Calm     86% 0 in 0.00 W/m2
01:54 57.3 °F 53.1 °F 29.87 in Calm     86% 0 in 0.00 W/m2
01:59 57.2 °F 53 °F 29.87 in Calm     86% 0 in 0.00 W/m2
02:04 57 °F 52.9 °F 29.87 in Calm     86% 0 in 0.00 W/m2
02:09 57 °F 52.9 °F 29.87 in Calm     86% 0 in 0.00 W/m2
02:14 56.9 °F 52.8 °F 29.87 in Calm     86% 0 in 0.00 W/m2
02:19 56.7 °F 52.6 °F 29.87 in Calm     86% 0 in 0.00 W/m2
02:24 56.6 °F 52.5 °F 29.87 in Calm     86% 0 in 0.00 W/m2
02:29 56.6 °F 52.5 °F 29.87 in Calm     86% 0 in 0.00 W/m2
02:34 56.5 °F 52.4 °F 29.86 in Calm     86% 0 in 0.00 W/m2
02:39 56.5 °F 52.4 °F 29.86 in Calm     86% 0 in 0.00 W/m2
02:44 56.3 °F 52.2 °F 29.86 in Calm     86% 0 in 0.00 W/m2
02:49 56.2 °F 52.1 °F 29.86 in Calm     86% 0 in 0.00 W/m2
02:54 56 °F 51.9 °F 29.86 in Calm     86% 0 in 0.00 W/m2
02:59 56 °F 51.9 °F 29.86 in Calm     86% 0 in 0.00 W/m2
03:04 55.9 °F 51.8 °F 29.86 in Calm     86% 0 in 0.00 W/m2
03:09 55.9 °F 51.8 °F 29.87 in Calm     86% 0 in 0.00 W/m2
03:14 55.7 °F 51.6 °F 29.87 in Calm     86% 0 in 0.00 W/m2
03:19 55.7 °F 51.6 °F 29.87 in Calm     86% 0 in 0.00 W/m2
03:24 55.6 °F 51.5 °F 29.87 in Calm     86% 0 in 0.00 W/m2
03:29 55.4 °F 51.3 °F 29.87 in Calm     86% 0 in 0.00 W/m2
03:34 55.4 °F 51.3 °F 29.87 in Calm     86% 0 in 0.00 W/m2
03:39 55.4 °F 51.3 °F 29.86 in Calm     86% 0 in 0.00 W/m2
03:44 55.4 °F 51.3 °F 29.87 in Calm     86% 0 in 0.00 W/m2
03:49 55.4 °F 51.6 °F 29.87 in Calm     87% 0 in 0.00 W/m2
03:54 55.4 °F 51.6 °F 29.87 in Calm     87% 0 in 0.00 W/m2
03:59 55.4 °F 51.6 °F 29.87 in Calm     87% 0 in 0.00 W/m2
04:04 55.6 °F 51.8 °F 29.87 in Calm     87% 0 in 0.00 W/m2
04:09 55.7 °F 52.2 °F 29.87 in Calm     88% 0 in 0.00 W/m2
04:14 55.7 °F 52.2 °F 29.87 in Calm     88% 0 in 0.00 W/m2
04:19 55.7 °F 52.2 °F 29.87 in Calm     88% 0 in 0.00 W/m2
04:24 55.9 °F 52.4 °F 29.87 in Calm     88% 0 in 0.00 W/m2
04:29 56 °F 52.5 °F 29.87 in Calm     88% 0 in 0.00 W/m2
04:34 56 °F 52.5 °F 29.87 in Calm     88% 0 in 0.00 W/m2
04:39 56.2 °F 52.7 °F 29.87 in Calm     88% 0 in 0.00 W/m2
04:44 56.2 °F 52.7 °F 29.87 in Calm     88% 0 in 0.00 W/m2
04:49 56.2 °F 52.7 °F 29.87 in Calm     88% 0 in 0.00 W/m2
04:54 56.3 °F 52.8 °F 29.87 in Calm     88% 0 in 0.00 W/m2
04:59 56.3 °F 52.8 °F 29.87 in Calm     88% 0 in 0.00 W/m2
05:04 56.3 °F 52.8 °F 29.87 in Calm     88% 0 in 0.00 W/m2
05:09 56.3 °F 52.8 °F 29.87 in Calm     88% 0 in 0.00 W/m2
05:14 56.2 °F 52.7 °F 29.87 in Calm     88% 0 in 0.00 W/m2
05:19 56.2 °F 52.7 °F 29.87 in Calm     88% 0 in 0.00 W/m2
05:24 56.2 °F 52.7 °F 29.88 in Calm     88% 0 in 0.00 W/m2
05:29 56.2 °F 52.7 °F 29.88 in Calm     88% 0 in 0.00 W/m2
05:34 56.2 °F 52.7 °F 29.88 in Calm     88% 0 in 0.00 W/m2
05:39 56 °F 52.5 °F 29.88 in Calm     88% 0 in 0.00 W/m2
05:44 56.2 °F 53 °F 29.88 in Calm     89% 0 in 0.00 W/m2
05:49 56.2 °F 53 °F 29.88 in Calm     89% 0 in 0.00 W/m2
05:54 56.3 °F 53.1 °F 29.88 in Calm     89% 0 in 0.00 W/m2
05:59 56.3 °F 53.1 °F 29.88 in Calm     89% 0 in 0.00 W/m2
06:04 56.5 °F 53.3 °F 29.88 in Calm     89% 0 in 0.00 W/m2
06:09 56.5 °F 53.3 °F 29.88 in Calm     89% 0 in 0.00 W/m2
06:14 56.5 °F 53.3 °F 29.88 in Calm     89% 0 in 0.00 W/m2
06:19 56.6 °F 53.4 °F 29.89 in Calm     89% 0 in 0.00 W/m2
06:24 56.6 °F 53.7 °F 29.89 in Calm     90% 0 in 0.00 W/m2
06:29 56.7 °F 53.8 °F 29.89 in Calm     90% 0 in 0.00 W/m2
06:34 56.7 °F 53.8 °F 29.89 in Calm     90% 0 in 0.00 W/m2
06:39 56.7 °F 53.8 °F 29.89 in Calm     90% 0 in 0.00 W/m2
06:44 56.9 °F 53.7 °F 29.89 in Calm     89% 0 in 0.00 W/m2
06:49 56.9 °F 54 °F 29.89 in Calm     90% 0 in 5.00 W/m2
06:54 56.9 °F 53.7 °F 29.89 in Calm     89% 0 in 7.00 W/m2
06:59 56.9 °F 53.7 °F 29.90 in Calm     89% 0 in 9.00 W/m2
07:04 57 °F 54.1 °F 29.89 in Calm     90% 0 in 12.00 W/m2
07:09 57 °F 54.1 °F 29.89 in Calm     90% 0 in 14.00 W/m2
07:14 57 °F 54.1 °F 29.90 in Calm     90% 0 in 16.00 W/m2
07:19 57.2 °F 54.3 °F 29.90 in Calm     90% 0 in 18.00 W/m2
07:24 57.2 °F 54.3 °F 29.90 in Calm     90% 0 in 21.00 W/m2
07:29 57.3 °F 54.4 °F 29.90 in Calm     90% 0 in 23.00 W/m2
07:34 57.3 °F 54.4 °F 29.91 in Calm     90% 0 in 25.00 W/m2
07:39 57.3 °F 54.4 °F 29.91 in Calm     90% 0 in 25.00 W/m2
07:44 57.3 °F 54.4 °F 29.91 in Calm     90% 0 in 26.00 W/m2
07:49 57.3 °F 54.4 °F 29.91 in Calm     90% 0 in 28.00 W/m2
07:54 57.5 °F 54.6 °F 29.91 in Calm     90% 0 in 28.00 W/m2
07:59 57.5 °F 54.6 °F 29.91 in Calm     90% 0 in 33.00 W/m2
08:04 57.3 °F 54.4 °F 29.91 in Calm     90% 0 in 39.00 W/m2
08:09 57.3 °F 54.4 °F 29.91 in Calm     90% 0 in 44.00 W/m2
08:14 57.5 °F 54.6 °F 29.91 in Calm     90% 0 in 51.00 W/m2
08:19 57.5 °F 54.6 °F 29.92 in Calm     90% 0 in 51.00 W/m2
08:24 57.5 °F 54.6 °F 29.92 in Calm     90% 0 in 53.00 W/m2
08:29 57.5 °F 54.6 °F 29.92 in Calm     90% 0 in 63.00 W/m2
08:34 57.5 °F 54.6 °F 29.92 in Calm     90% 0 in 67.00 W/m2
08:39 57.5 °F 54.3 °F 29.92 in Calm     89% 0 in 72.00 W/m2
08:44 57.5 °F 54.3 °F 29.92 in Calm     89% 0 in 79.00 W/m2
08:49 57.6 °F 54.4 °F 29.92 in Calm     89% 0 in 86.00 W/m2
08:54 57.6 °F 54.4 °F 29.92 in Calm     89% 0 in 97.00 W/m2
08:59 57.6 °F 54.1 °F 29.93 in Calm     88% 0 in 111.00 W/m2
09:04 57.6 °F 54.4 °F 29.93 in Calm     89% 0 in 123.00 W/m2
09:09 57.8 °F 54.3 °F 29.93 in Calm     88% 0 in 143.00 W/m2
09:14 57.8 °F 54.3 °F 29.93 in Calm     88% 0 in 165.00 W/m2
09:19 57.8 °F 54 °F 29.93 in Calm     87% 0 in 187.00 W/m2
09:24 58 °F 54.5 °F 29.93 in Calm     88% 0 in 238.00 W/m2
09:29 58.3 °F 54.4 °F 29.93 in Calm     87% 0 in 260.00 W/m2
09:34 58.3 °F 54.4 °F 29.93 in Calm     87% 0 in 303.00 W/m2
09:39 58.7 °F 54.8 °F 29.93 in Calm     87% 0 in 359.00 W/m2
09:44 59 °F 54.8 °F 29.93 in Calm     86% 0 in 394.00 W/m2
09:49 59.3 °F 55.1 °F 29.93 in Calm     86% 0 in 704.00 W/m2
09:54 59.6 °F 55.4 °F 29.93 in Calm     86% 0 in 487.00 W/m2
09:59 59.8 °F 55.3 °F 29.93 in Calm     85% 0 in 577.00 W/m2
10:04 59.8 °F 54.6 °F 29.93 in Calm     83% 0 in 593.00 W/m2
10:09 59.9 °F 54.4 °F 29.92 in Calm     82% 0 in 596.00 W/m2
10:14 60.2 °F 54.7 °F 29.92 in Calm     82% 0 in 609.00 W/m2
10:19 60.4 °F 54.9 °F 29.92 in Calm     82% 0 in 626.00 W/m2
10:24 60.5 °F 54.6 °F 29.92 in Calm     81% 0 in 639.00 W/m2
10:29 60.9 °F 55 °F 29.92 in Calm     81% 0 in 653.00 W/m2
10:34 61.2 °F 55 °F 29.92 in Calm     80% 0 in 662.00 W/m2
10:39 61.5 °F 54.9 °F 29.92 in Calm     79% 0 in 674.00 W/m2
10:44 61.8 °F 54.9 °F 29.92 in Calm     78% 0 in 683.00 W/m2
10:49 62 °F 55.1 °F 29.92 in Calm     78% 0 in 697.00 W/m2
10:54 62.3 °F 55 °F 29.92 in Calm     77% 0 in 704.00 W/m2
10:59 62.7 °F 55.4 °F 29.92 in Calm     77% 0 in 716.00 W/m2
11:04 63.1 °F 55 °F 29.92 in Calm     75% 0 in 721.00 W/m2
11:09 63.5 °F 55.1 °F 29.92 in Calm     74% 0 in 732.00 W/m2
11:14 63.9 °F 55.1 °F 29.92 in Calm     73% 0 in 739.00 W/m2
11:19 64.2 °F 55 °F 29.92 in Calm     72% 0 in 746.00 W/m2
11:24 64.7 °F 55.5 °F 29.92 in Calm     72% 0 in 757.00 W/m2
11:29 65.2 °F 55.6 °F 29.91 in Calm     71% 0 in 760.00 W/m2
11:34 65.5 °F 55.1 °F 29.91 in Calm     69% 0 in 771.00 W/m2
11:39 66 °F 55.5 °F 29.91 in Calm     69% 0 in 779.00 W/m2
11:44 66.3 °F 55.8 °F 29.91 in Calm     69% 0 in 783.00 W/m2
11:49 66.6 °F 55.3 °F 29.91 in Calm     67% 0 in 788.00 W/m2
11:54 67.1 °F 55.8 °F 29.91 in Calm     67% 0 in 795.00 W/m2
11:59 67.4 °F 55.6 °F 29.91 in Calm     66% 0 in 799.00 W/m2
12:04 67.8 °F 55.6 °F 29.91 in Calm     65% 0 in 801.00 W/m2
12:09 68.3 °F 56.1 °F 29.91 in Calm     65% 0 in 808.00 W/m2
12:14 68.6 °F 55.9 °F 29.91 in Calm     64% 0 in 809.00 W/m2
12:19 68.9 °F 56.2 °F 29.91 in Calm     64% 0 in 815.00 W/m2
12:24 69.3 °F 56.6 °F 29.91 in ENE 0.5 mph 3.5 mph 64% 0 in 822.00 W/m2
12:29 69.6 °F 55.6 °F 29.90 in NNW 1.8 mph 5.8 mph 61% 0 in 822.00 W/m2
12:34 70.1 °F 56 °F 29.90 in North 1.7 mph 5.8 mph 61% 0 in 823.00 W/m2
12:39 70.4 °F 56.3 °F 29.90 in NW 1.7 mph 4.6 mph 61% 0 in 827.00 W/m2
12:44 70.8 °F 56.2 °F 29.90 in West 0.6 mph 3.5 mph 60% 0 in 827.00 W/m2
12:49 71.1 °F 56 °F 29.89 in North 2.9 mph 6.9 mph 59% 0 in 830.00 W/m2
12:54 71.6 °F 55.6 °F 29.89 in North 2.5 mph 3.5 mph 57% 0 in 829.00 W/m2
12:59 72.1 °F 56.5 °F 29.89 in South 1.3 mph 3.5 mph 58% 0 in 832.00 W/m2
Juneau County Weather
Compliments of Weather Underground - 2.25 mb